Time;durP1;ratioP1;P1;durP2;ratioP2;P2;SDS_P1;SDS_P2;PMS_P1;PMS_P2;Temp;Humidity;BMP_temperature;BMP_pressure;BME280_temperature;BME280_humidity;BME280_pressure;Samples;Min_cycle;Max_cycle;Signal;HPM_P1;HPM_P2
2022/01/05 00:01:50;;;;;;;8.07;0.80;;;1.40;78.30;;;;;;4156124;28;20444;-71
2022/01/05 00:03:51;;;;;;;6.50;0.98;;;1.40;78.30;;;;;;4159805;28;20478;-71
2022/01/05 00:05:51;;;;;;;3.38;0.60;;;1.50;78.20;;;;;;4126773;28;20113;-70
2022/01/05 00:07:52;;;;;;;6.95;0.88;;;1.40;78.10;;;;;;4157143;28;20026;-70
2022/01/05 00:09:52;;;;;;;9.70;1.05;;;1.40;78.20;;;;;;4157848;28;20041;-70
2022/01/05 00:11:53;;;;;;;14.25;1.85;;;1.40;78.10;;;;;;4142874;28;20041;-71
2022/01/05 00:13:56;;;;;;;13.27;1.10;;;1.40;78.10;;;;;;4142726;28;20403;-71
2022/01/05 00:15:56;;;;;;;9.45;1.50;;;1.40;78.10;;;;;;4132576;28;20388;-71
2022/01/05 00:17:57;;;;;;;8.13;1.05;;;1.40;78.10;;;;;;4154036;28;20116;-70
2022/01/05 00:19:57;;;;;;;5.78;0.80;;;1.40;78.10;;;;;;4159638;28;20025;-71
2022/01/05 00:21:58;;;;;;;4.13;0.73;;;1.40;78.00;;;;;;4140470;28;20026;-71
2022/01/05 00:23:59;;;;;;;13.35;0.98;;;1.30;78.00;;;;;;4159783;28;20044;-71
2022/01/05 00:26:03;;;;;;;13.48;1.35;;;1.30;78.00;;;;;;4159288;28;20516;-71
2022/01/05 00:28:04;;;;;;;12.27;1.42;;;1.30;78.00;;;;;;4157284;28;20032;-70
2022/01/05 00:30:05;;;;;;;7.68;1.75;;;1.30;78.20;;;;;;4128856;28;20090;-71
2022/01/05 00:32:06;;;;;;;10.77;0.95;;;1.30;78.10;;;;;;4157455;28;20041;-71
2022/01/05 00:34:06;;;;;;;17.80;1.35;;;1.30;78.10;;;;;;4161888;28;20507;-71
2022/01/05 00:36:07;;;;;;;8.18;1.00;;;1.30;78.10;;;;;;4155042;28;20018;-71
2022/01/05 00:38:08;;;;;;;7.30;1.20;;;1.30;78.10;;;;;;4152857;28;20030;-70
2022/01/05 00:40:09;;;;;;;10.15;1.50;;;1.30;78.10;;;;;;4162602;28;20021;-70
2022/01/05 00:42:09;;;;;;;8.00;1.23;;;1.20;78.10;;;;;;4136736;28;20072;-71
2022/01/05 00:44:10;;;;;;;7.03;1.00;;;1.20;78.10;;;;;;4155137;28;20390;-70
2022/01/05 00:46:10;;;;;;;9.95;1.60;;;1.20;78.10;;;;;;4163450;28;20435;-71
2022/01/05 00:48:11;;;;;;;7.00;1.40;;;1.20;78.20;;;;;;4161474;28;20437;-71
2022/01/05 00:50:12;;;;;;;4.05;1.00;;;1.20;78.20;;;;;;4151927;28;20030;-71
2022/01/05 00:52:13;;;;;;;11.77;1.23;;;1.20;78.20;;;;;;4148694;28;20057;-70
2022/01/05 00:54:13;;;;;;;12.65;1.40;;;1.20;78.20;;;;;;4154275;28;20029;-70
2022/01/05 00:56:14;;;;;;;11.05;1.10;;;1.20;78.30;;;;;;4145518;28;20026;-71
2022/01/05 00:58:15;;;;;;;13.75;2.13;;;1.10;78.30;;;;;;4161560;28;20030;-71
2022/01/05 01:00:15;;;;;;;17.58;1.88;;;1.10;78.30;;;;;;4160303;28;20026;-70
2022/01/05 01:02:16;;;;;;;15.23;1.50;;;1.10;78.30;;;;;;4151808;28;20465;-70
2022/01/05 01:04:16;;;;;;;11.75;1.50;;;1.10;78.30;;;;;;4162476;28;20046;-71
2022/01/05 01:06:17;;;;;;;14.02;2.10;;;1.10;78.40;;;;;;4163127;28;20030;-71
2022/01/05 01:08:18;;;;;;;14.93;1.80;;;1.10;78.40;;;;;;4161438;28;20037;-71
2022/01/05 01:10:18;;;;;;;18.02;1.50;;;1.10;78.50;;;;;;4144755;28;20433;-71
2022/01/05 01:12:19;;;;;;;16.13;2.22;;;1.10;78.60;;;;;;4156894;28;20038;-70
2022/01/05 01:14:19;;;;;;;12.65;1.60;;;1.10;78.80;;;;;;4162257;28;20676;-70
2022/01/05 01:16:20;;;;;;;23.83;2.55;;;1.20;79.00;;;;;;4163011;28;20060;-71
2022/01/05 01:18:21;;;;;;;16.70;2.22;;;1.10;79.00;;;;;;4145039;28;20021;-70
2022/01/05 01:20:22;;;;;;;17.10;1.83;;;1.20;79.20;;;;;;4156755;28;20056;-70
2022/01/05 01:22:23;;;;;;;15.75;1.83;;;1.20;79.30;;;;;;4139125;28;20453;-70
2022/01/05 01:24:24;;;;;;;26.23;3.03;;;1.20;79.40;;;;;;4144438;28;20237;-71
2022/01/05 01:26:26;;;;;;;23.65;2.20;;;1.20;79.40;;;;;;4128878;28;20446;-71
2022/01/05 01:28:27;;;;;;;20.50;2.55;;;1.20;79.50;;;;;;4127176;28;20057;-70
2022/01/05 01:30:30;;;;;;;21.58;2.20;;;1.30;79.60;;;;;;4149699;28;20143;-71
2022/01/05 01:32:30;;;;;;;16.67;1.90;;;1.30;79.70;;;;;;4159368;28;20178;-71
2022/01/05 01:34:31;;;;;;;19.00;2.30;;;1.30;79.60;;;;;;4160335;28;20018;-71
2022/01/05 01:36:31;;;;;;;16.90;2.13;;;1.30;79.60;;;;;;4159556;28;20061;-70
2022/01/05 01:38:32;;;;;;;20.08;2.13;;;1.40;80.40;;;;;;4160214;28;20158;-71
2022/01/05 01:40:33;;;;;;;26.10;2.70;;;1.40;79.70;;;;;;4161994;28;20389;-71
2022/01/05 01:42:33;;;;;;;18.92;2.08;;;1.40;79.80;;;;;;4157714;28;20029;-70
2022/01/05 01:44:34;;;;;;;17.35;2.22;;;1.50;80.00;;;;;;4161636;28;20110;-70
2022/01/05 01:46:35;;;;;;;14.82;1.70;;;1.50;80.00;;;;;;4162615;28;20359;-71
2022/01/05 01:48:35;;;;;;;17.35;2.38;;;1.60;80.10;;;;;;4161936;28;20481;-71
2022/01/05 01:50:36;;;;;;;19.55;2.50;;;1.60;80.70;;;;;;4145113;28;20036;-71
2022/01/05 01:52:37;;;;;;;12.90;1.55;;;1.70;80.00;;;;;;4143835;28;20177;-71
2022/01/05 01:54:38;;;;;;;18.05;1.80;;;1.70;79.80;;;;;;4133965;28;20021;-70
2022/01/05 01:56:38;;;;;;;12.57;1.88;;;1.80;79.70;;;;;;4162540;28;20474;-71
2022/01/05 01:58:39;;;;;;;20.10;2.15;;;1.80;79.70;;;;;;4162187;28;20099;-70
2022/01/05 02:00:40;;;;;;;16.20;1.73;;;1.90;79.80;;;;;;4136209;28;20030;-71
2022/01/05 02:02:40;;;;;;;18.65;1.98;;;1.90;79.70;;;;;;4156573;28;20033;-71
2022/01/05 02:04:43;;;;;;;10.65;1.60;;;2.00;79.60;;;;;;4143887;28;20034;-71
2022/01/05 02:06:43;;;;;;;17.13;2.05;;;2.00;79.40;;;;;;4162301;28;20033;-71
2022/01/05 02:08:44;;;;;;;15.25;2.08;;;2.00;79.40;;;;;;4162239;28;20733;-71
2022/01/05 02:10:44;;;;;;;20.17;2.03;;;2.10;79.40;;;;;;4141652;28;20034;-71
2022/01/05 02:12:45;;;;;;;12.32;1.63;;;2.10;79.20;;;;;;4161790;28;20026;-71
2022/01/05 02:14:46;;;;;;;18.75;2.08;;;2.20;79.10;;;;;;4161302;28;20040;-71
2022/01/05 02:16:47;;;;;;;28.65;2.22;;;2.20;79.10;;;;;;4144336;28;20395;-71
2022/01/05 02:19:00;;;;;;;19.52;1.98;;;2.20;79.10;;;;;;4161763;28;20064;-71
2022/01/05 02:21:05;;;;;;;23.27;2.70;;;2.20;79.00;;;;;;4103386;28;20312;-71
2022/01/05 02:23:06;;;;;;;19.20;1.60;;;2.30;79.00;;;;;;4161730;28;20275;-71
2022/01/05 02:25:06;;;;;;;17.65;2.35;;;2.30;78.90;;;;;;4161312;28;20041;-71
2022/01/05 02:27:08;;;;;;;14.60;1.70;;;2.30;78.90;;;;;;4144221;28;20026;-71
2022/01/05 02:29:08;;;;;;;19.08;2.65;;;2.40;78.90;;;;;;4153309;28;20026;-72
2022/01/05 02:31:09;;;;;;;27.67;2.35;;;2.40;78.90;;;;;;4140596;28;20560;-71
2022/01/05 02:33:10;;;;;;;18.10;2.30;;;2.40;79.00;;;;;;4143653;28;20112;-71
2022/01/05 02:35:10;;;;;;;11.18;1.90;;;2.50;79.10;;;;;;4161105;28;20559;-71
2022/01/05 02:37:11;;;;;;;13.40;1.80;;;2.50;79.00;;;;;;4136960;28;20023;-71
2022/01/05 02:39:12;;;;;;;22.48;3.00;;;2.50;78.90;;;;;;4160721;28;20100;-72
2022/01/05 02:41:12;;;;;;;14.82;2.05;;;2.60;78.90;;;;;;4159457;28;20092;-71
2022/01/05 02:43:13;;;;;;;17.15;2.25;;;2.60;78.70;;;;;;4143458;28;20036;-71
2022/01/05 02:45:14;;;;;;;21.10;2.35;;;2.60;78.50;;;;;;4143013;28;20120;-72
2022/01/05 02:47:14;;;;;;;18.17;1.80;;;2.70;78.50;;;;;;4117301;28;20042;-71
2022/01/05 02:49:15;;;;;;;19.77;2.20;;;2.70;78.40;;;;;;4160120;28;20044;-71
2022/01/05 02:51:16;;;;;;;17.23;1.95;;;2.80;78.40;;;;;;4141874;28;20128;-71
2022/01/05 02:53:16;;;;;;;17.55;2.47;;;2.80;78.20;;;;;;4143129;28;20029;-71
2022/01/05 02:55:17;;;;;;;18.80;2.15;;;2.90;78.20;;;;;;4125757;28;20030;-71
2022/01/05 02:57:17;;;;;;;22.35;2.50;;;2.90;78.10;;;;;;4160656;28;20025;-71
2022/01/05 02:59:18;;;;;;;16.17;1.85;;;2.90;78.00;;;;;;4160128;28;20022;-71
2022/01/05 03:01:19;;;;;;;19.00;2.05;;;3.00;78.00;;;;;;4160536;28;20032;-71
2022/01/05 03:03:19;;;;;;;20.88;1.98;;;3.00;77.90;;;;;;4158769;28;20460;-71
2022/01/05 03:05:20;;;;;;;19.42;3.47;;;3.00;77.80;;;;;;4148992;28;20083;-71
2022/01/05 03:07:20;;;;;;;21.48;2.70;;;3.00;77.90;;;;;;4160035;28;20120;-71
2022/01/05 03:09:21;;;;;;;16.38;2.65;;;3.00;77.90;;;;;;4142866;28;20161;-72
2022/01/05 03:11:22;;;;;;;19.35;2.45;;;3.00;78.80;;;;;;4143039;28;20034;-71
2022/01/05 03:13:25;;;;;;;22.80;2.67;;;3.00;78.30;;;;;;4139654;28;20068;-72
2022/01/05 03:15:26;;;;;;;27.75;2.80;;;3.00;78.40;;;;;;4143202;28;20092;-72
2022/01/05 03:17:26;;;;;;;21.50;2.95;;;3.00;78.70;;;;;;4160580;28;20029;-72
2022/01/05 03:19:27;;;;;;;17.65;2.35;;;3.00;79.10;;;;;;4160273;28;20377;-72
2022/01/05 03:21:27;;;;;;;15.82;2.10;;;3.10;80.10;;;;;;4143148;28;20045;-72
2022/01/05 03:23:28;;;;;;;11.82;2.17;;;3.10;79.70;;;;;;4153403;28;20493;-72
2022/01/05 03:25:29;;;;;;;12.02;1.67;;;3.10;79.80;;;;;;4160404;28;20021;-71
2022/01/05 03:27:29;;;;;;;16.42;2.63;;;3.10;79.90;;;;;;4138407;28;20617;-72
2022/01/05 03:29:30;;;;;;;13.15;1.63;;;3.20;80.00;;;;;;4159758;28;20491;-72
2022/01/05 03:31:31;;;;;;;12.95;1.80;;;3.20;80.00;;;;;;4150093;28;20368;-72
2022/01/05 03:33:31;;;;;;;18.70;2.08;;;3.20;80.00;;;;;;4158419;28;20052;-71
2022/01/05 03:35:34;;;;;;;17.95;1.80;;;3.20;80.00;;;;;;4155971;28;20559;-72
2022/01/05 03:37:34;;;;;;;11.47;1.33;;;3.20;79.90;;;;;;4157537;28;20025;-72
2022/01/05 03:39:35;;;;;;;24.88;1.98;;;3.20;80.00;;;;;;4159826;28;20473;-71
2022/01/05 03:41:35;;;;;;;11.60;2.10;;;3.20;80.00;;;;;;4160035;28;20022;-72
2022/01/05 03:43:36;;;;;;;20.17;3.08;;;3.20;80.10;;;;;;4150031;28;20379;-71
2022/01/05 03:45:37;;;;;;;16.40;3.83;;;3.20;80.20;;;;;;4141869;28;20076;-71
2022/01/05 03:47:37;;;;;;;32.80;6.57;;;3.20;80.30;;;;;;4160400;28;20440;-72
2022/01/05 03:49:38;;;;;;;54.05;15.25;;;3.20;80.50;;;;;;4143236;28;20438;-71
2022/01/05 03:51:39;;;;;;;21.40;8.45;;;3.20;80.50;;;;;;4160797;28;20032;-71
2022/01/05 03:53:39;;;;;;;24.85;6.55;;;3.30;80.60;;;;;;4155759;28;20029;-72
2022/01/05 03:55:41;;;;;;;23.10;6.90;;;3.30;80.70;;;;;;4160000;28;20477;-71
2022/01/05 03:57:42;;;;;;;20.50;6.70;;;3.30;80.80;;;;;;4125876;28;20097;-71
2022/01/05 03:59:42;;;;;;;8.02;2.10;;;3.30;80.80;;;;;;4159828;28;20025;-72
2022/01/05 04:01:43;;;;;;;13.40;1.42;;;3.30;81.50;;;;;;4158827;28;20014;-71
2022/01/05 04:03:43;;;;;;;13.60;1.35;;;3.30;80.70;;;;;;4140551;28;20030;-72
2022/01/05 04:05:44;;;;;;;10.32;1.38;;;3.30;80.60;;;;;;4160313;28;20034;-71
2022/01/05 04:07:45;;;;;;;8.30;1.35;;;3.30;80.50;;;;;;4145627;28;20418;-71
2022/01/05 04:09:45;;;;;;;13.68;1.88;;;3.30;80.50;;;;;;4159444;28;20017;-71
2022/01/05 04:11:46;;;;;;;17.88;2.70;;;3.30;80.40;;;;;;4162442;28;20064;-71
2022/01/05 04:13:47;;;;;;;5.22;1.60;;;3.30;80.30;;;;;;4147684;28;20160;-72
2022/01/05 04:15:47;;;;;;;10.95;1.92;;;3.30;80.30;;;;;;4160622;28;20429;-72
2022/01/05 04:17:48;;;;;;;8.60;2.17;;;3.30;80.20;;;;;;4163358;28;20021;-71
2022/01/05 04:19:48;;;;;;;11.55;2.60;;;3.30;80.30;;;;;;4162972;28;20505;-72
2022/01/05 04:21:49;;;;;;;24.45;3.15;;;3.30;80.30;;;;;;4144171;28;20234;-72
2022/01/05 04:23:50;;;;;;;9.90;2.03;;;3.20;80.20;;;;;;4142978;28;20038;-71
2022/01/05 04:25:51;;;;;;;19.40;2.22;;;3.30;80.30;;;;;;4162989;28;20025;-72
2022/01/05 04:27:52;;;;;;;17.00;4.63;;;3.20;80.20;;;;;;4162790;28;20021;-72
2022/01/05 04:29:52;;;;;;;9.40;2.05;;;3.30;80.30;;;;;;4162740;28;20064;-72
2022/01/05 04:31:53;;;;;;;16.70;4.30;;;3.20;80.30;;;;;;4158726;28;20026;-72
2022/01/05 04:33:54;;;;;;;13.20;2.55;;;3.20;80.40;;;;;;4161026;28;20026;-72
2022/01/05 04:35:54;;;;;;;15.55;3.80;;;3.20;80.30;;;;;;4161174;28;20018;-72
2022/01/05 04:37:55;;;;;;;33.25;10.23;;;3.20;80.50;;;;;;4161955;28;20033;-72
2022/01/05 04:39:55;;;;;;;7.32;2.35;;;3.20;80.60;;;;;;4126754;28;20037;-72
2022/01/05 04:41:56;;;;;;;17.15;2.78;;;3.20;80.60;;;;;;4162176;28;20030;-72
2022/01/05 04:43:57;;;;;;;14.88;2.42;;;3.20;80.70;;;;;;4162643;28;20521;-72
2022/01/05 04:45:57;;;;;;;11.23;1.35;;;3.20;80.80;;;;;;4161410;28;20029;-72
2022/01/05 04:47:58;;;;;;;46.90;9.15;;;3.20;80.90;;;;;;4129260;28;20027;-72
2022/01/05 04:49:59;;;;;;;21.45;4.03;;;3.20;81.00;;;;;;4144010;28;20026;-72
2022/01/05 04:51:59;;;;;;;12.88;2.30;;;3.20;81.10;;;;;;4146010;28;20042;-72
2022/01/05 04:54:00;;;;;;;19.02;3.67;;;3.20;81.20;;;;;;4145371;28;20108;-72
2022/01/05 04:56:01;;;;;;;7.30;1.02;;;3.10;81.20;;;;;;4143455;28;20022;-72
2022/01/05 04:58:01;;;;;;;14.90;2.50;;;3.20;81.40;;;;;;4131167;28;20033;-72
2022/01/05 05:00:03;;;;;;;36.47;9.77;;;3.10;81.40;;;;;;4157032;28;20409;-72
2022/01/05 05:02:04;;;;;;;18.23;3.22;;;3.20;81.60;;;;;;4145160;28;20084;-72
2022/01/05 05:04:04;;;;;;;11.68;2.72;;;3.20;81.70;;;;;;4162646;28;20485;-72
2022/01/05 05:06:05;;;;;;;15.68;2.47;;;3.20;81.80;;;;;;4119671;28;20030;-72
2022/01/05 05:08:05;;;;;;;11.25;1.42;;;3.20;81.90;;;;;;4131914;28;20200;-72
2022/01/05 05:10:07;;;;;;;22.40;5.53;;;3.20;82.00;;;;;;4162179;28;20026;-72
2022/01/05 05:12:08;;;;;;;23.60;6.10;;;3.20;82.10;;;;;;4162940;28;20546;-72
2022/01/05 05:14:09;;;;;;;38.53;11.70;;;3.20;81.80;;;;;;4151249;28;20072;-72
2022/01/05 05:16:10;;;;;;;15.48;3.88;;;3.20;81.70;;;;;;4119686;28;20042;-72
2022/01/05 05:18:10;;;;;;;29.33;8.02;;;3.20;81.70;;;;;;4162407;28;20037;-72
2022/01/05 05:20:11;;;;;;;47.55;14.13;;;3.10;81.60;;;;;;4162243;28;20103;-71
2022/01/05 05:22:12;;;;;;;29.00;9.15;;;3.20;82.20;;;;;;4126748;28;20557;-72
2022/01/05 05:24:15;;;;;;;16.48;2.45;;;3.10;81.40;;;;;;4161788;28;20028;-72
2022/01/05 05:26:15;;;;;;;21.17;1.48;;;3.10;81.40;;;;;;4159904;28;20033;-72
2022/01/05 05:28:16;;;;;;;11.93;1.40;;;3.10;81.40;;;;;;4162243;28;20111;-71
2022/01/05 05:30:17;;;;;;;12.93;1.48;;;3.10;81.60;;;;;;4162306;28;20446;-71
2022/01/05 05:32:17;;;;;;;11.23;1.40;;;3.10;81.60;;;;;;4135618;28;20093;-72
2022/01/05 05:34:18;;;;;;;10.50;1.40;;;3.10;81.60;;;;;;4160670;28;20026;-72
2022/01/05 05:36:18;;;;;;;19.33;1.33;;;3.00;81.60;;;;;;4125733;28;20121;-72
2022/01/05 05:38:19;;;;;;;9.57;1.08;;;3.00;81.50;;;;;;4143935;28;20033;-71
2022/01/05 05:40:20;;;;;;;6.35;1.15;;;3.00;81.50;;;;;;4144260;28;20434;-71
2022/01/05 05:42:21;;;;;;;5.93;0.90;;;3.00;81.50;;;;;;4153102;28;20106;-71
2022/01/05 05:44:21;;;;;;;9.90;1.20;;;3.00;81.50;;;;;;4156557;28;20052;-72
2022/01/05 05:46:22;;;;;;;12.10;1.42;;;2.90;81.30;;;;;;4161235;28;20080;-71
2022/01/05 05:48:23;;;;;;;14.75;1.00;;;2.90;81.30;;;;;;4160358;28;20108;-71
2022/01/05 05:50:23;;;;;;;11.00;1.17;;;2.90;82.10;;;;;;4158378;28;20056;-72
2022/01/05 05:52:24;;;;;;;13.50;1.48;;;2.90;81.40;;;;;;4137795;28;20029;-72
2022/01/05 05:54:24;;;;;;;4.68;1.13;;;2.80;81.50;;;;;;4161870;28;20037;-72
2022/01/05 05:56:26;;;;;;;7.18;1.10;;;2.80;81.60;;;;;;4159693;28;20030;-72
2022/01/05 05:58:26;;;;;;;13.30;1.15;;;2.80;81.90;;;;;;4162131;28;20026;-72
2022/01/05 06:00:29;;;;;;;14.88;1.45;;;2.80;82.20;;;;;;4141787;28;20618;-72
2022/01/05 06:02:30;;;;;;;9.73;1.83;;;2.80;82.50;;;;;;4127558;28;20532;-72
2022/01/05 06:04:30;;;;;;;9.15;1.00;;;2.80;82.80;;;;;;4140780;28;20038;-72
2022/01/05 06:06:31;;;;;;;7.95;0.88;;;2.80;83.00;;;;;;4159192;28;20033;-72
2022/01/05 06:08:32;;;;;;;3.95;0.60;;;2.80;82.90;;;;;;4153291;28;20037;-72
2022/01/05 06:10:32;;;;;;;4.32;0.90;;;2.90;82.80;;;;;;4144150;28;20106;-72
2022/01/05 06:12:33;;;;;;;7.40;1.30;;;2.90;82.50;;;;;;4143714;28;20385;-72
2022/01/05 06:14:33;;;;;;;8.43;0.80;;;2.90;82.30;;;;;;4161957;28;20087;-72
2022/01/05 06:16:34;;;;;;;3.72;0.50;;;2.80;82.00;;;;;;4155902;28;20363;-71
2022/01/05 06:18:35;;;;;;;9.18;0.93;;;2.80;81.80;;;;;;4161723;28;20017;-71
2022/01/05 06:20:35;;;;;;;6.07;0.82;;;2.80;81.60;;;;;;4161890;28;20358;-72
2022/01/05 06:22:40;;;;;;;7.55;0.93;;;2.80;81.50;;;;;;4161267;28;20040;-72
2022/01/05 06:24:42;;;;;;;8.40;0.63;;;2.70;81.30;;;;;;4134992;28;20041;-71
2022/01/05 06:26:43;;;;;;;9.07;0.98;;;2.70;81.30;;;;;;4152056;28;20101;-72
2022/01/05 06:28:43;;;;;;;7.75;0.50;;;2.70;81.20;;;;;;4160403;28;20504;-72
2022/01/05 06:30:44;;;;;;;5.30;0.80;;;2.70;81.20;;;;;;4161104;28;20022;-72
2022/01/05 06:32:45;;;;;;;10.57;0.75;;;2.60;81.20;;;;;;4152916;28;20109;-72
2022/01/05 06:34:46;;;;;;;10.18;0.98;;;2.60;81.20;;;;;;4142002;28;20144;-71
2022/01/05 06:36:46;;;;;;;11.60;1.10;;;2.60;81.20;;;;;;4157113;28;20240;-71
2022/01/05 06:38:47;;;;;;;7.18;0.90;;;2.60;81.20;;;;;;4160938;28;20053;-72
2022/01/05 06:40:48;;;;;;;8.18;0.63;;;2.60;81.20;;;;;;4158960;28;20267;-71
2022/01/05 06:42:48;;;;;;;9.60;1.40;;;2.60;81.00;;;;;;4145466;28;20105;-72
2022/01/05 06:44:49;;;;;;;8.82;0.82;;;2.60;81.00;;;;;;4159923;28;20029;-71
2022/01/05 06:46:49;;;;;;;5.45;0.80;;;2.60;81.00;;;;;;4159855;28;20257;-72
2022/01/05 06:48:50;;;;;;;6.72;0.90;;;2.50;80.90;;;;;;4149764;28;20095;-72
2022/01/05 06:50:51;;;;;;;5.20;0.70;;;2.50;81.00;;;;;;4154820;28;20064;-71
2022/01/05 06:52:53;;;;;;;6.80;0.85;;;2.50;81.10;;;;;;4127459;28;20112;-72
2022/01/05 06:54:53;;;;;;;5.13;0.80;;;2.60;81.30;;;;;;4150484;28;20026;-72
2022/01/05 06:56:54;;;;;;;6.90;0.63;;;2.60;81.40;;;;;;4160197;28;20036;-72
2022/01/05 06:58:55;;;;;;;9.02;0.80;;;2.60;81.60;;;;;;4150364;28;20513;-72
2022/01/05 07:00:55;;;;;;;6.57;0.68;;;2.60;81.70;;;;;;4153596;28;20037;-72
2022/01/05 07:02:56;;;;;;;6.45;0.82;;;2.60;81.70;;;;;;4127612;28;20041;-72
2022/01/05 07:04:56;;;;;;;7.60;0.77;;;2.60;81.70;;;;;;4149627;28;20090;-71
2022/01/05 07:06:57;;;;;;;8.35;0.80;;;2.60;81.60;;;;;;4126027;28;20208;-72
2022/01/05 07:08:57;;;;;;;6.13;0.85;;;2.70;81.50;;;;;;4167714;28;20514;-71
2022/01/05 07:10:58;;;;;;;4.95;0.45;;;2.60;81.30;;;;;;4140599;28;20042;-71
2022/01/05 07:12:59;;;;;;;4.63;0.57;;;2.60;81.20;;;;;;4161334;28;20058;-72
2022/01/05 07:14:59;;;;;;;7.85;0.77;;;2.60;81.70;;;;;;4159667;28;20024;-71
2022/01/05 07:17:00;;;;;;;7.78;0.90;;;2.60;80.90;;;;;;4158642;28;20038;-71
2022/01/05 07:19:01;;;;;;;3.90;0.60;;;2.60;80.80;;;;;;4156268;28;20121;-71
2022/01/05 07:21:01;;;;;;;11.60;1.15;;;2.60;80.80;;;;;;4142599;28;20343;-71
2022/01/05 07:23:02;;;;;;;8.13;0.80;;;2.60;80.60;;;;;;4161150;28;20040;-71
2022/01/05 07:25:03;;;;;;;13.43;1.08;;;2.60;80.60;;;;;;4160805;28;21355;-71
2022/01/05 07:27:04;;;;;;;7.60;0.90;;;2.60;80.60;;;;;;4125518;28;20457;-72
2022/01/05 07:29:05;;;;;;;9.43;1.08;;;2.60;80.70;;;;;;4157856;28;20072;-71
2022/01/05 07:31:06;;;;;;;14.48;1.58;;;2.60;80.70;;;;;;4142565;28;20036;-71
2022/01/05 07:33:07;;;;;;;7.93;1.00;;;2.60;80.80;;;;;;4142726;28;20033;-71
2022/01/05 07:35:08;;;;;;;9.25;1.02;;;2.50;80.80;;;;;;4158437;28;20021;-72
2022/01/05 07:37:09;;;;;;;14.68;1.48;;;2.60;80.90;;;;;;4154867;28;20052;-72
2022/01/05 07:39:10;;;;;;;14.23;1.83;;;2.60;80.90;;;;;;4155190;28;20033;-72
2022/01/05 07:41:11;;;;;;;12.43;1.48;;;2.60;81.00;;;;;;4159370;28;20036;-71
2022/01/05 07:43:11;;;;;;;9.00;1.20;;;2.60;81.10;;;;;;4142788;28;20414;-71
2022/01/05 07:45:12;;;;;;;16.20;1.45;;;2.60;81.20;;;;;;4157087;28;20022;-72
2022/01/05 07:47:12;;;;;;;13.30;1.40;;;2.60;81.30;;;;;;4155986;28;20514;-71
2022/01/05 07:49:13;;;;;;;11.55;1.85;;;2.60;81.30;;;;;;4149915;28;20025;-71
2022/01/05 07:51:14;;;;;;;18.98;1.70;;;2.60;81.40;;;;;;4153347;28;20481;-71
2022/01/05 07:53:14;;;;;;;13.25;1.80;;;2.60;81.40;;;;;;4142986;28;20036;-71
2022/01/05 07:55:15;;;;;;;17.60;1.75;;;2.60;81.40;;;;;;4159914;28;20044;-71
2022/01/05 07:57:15;;;;;;;14.38;2.25;;;2.60;81.50;;;;;;4130405;28;20294;-71
2022/01/05 07:59:16;;;;;;;10.25;1.40;;;2.60;81.50;;;;;;4150065;28;20029;-72
2022/01/05 08:01:18;;;;;;;16.75;1.67;;;2.70;81.50;;;;;;4159936;28;20026;-72
2022/01/05 08:03:19;;;;;;;11.30;1.23;;;2.70;81.50;;;;;;4160148;28;20116;-71
2022/01/05 08:05:20;;;;;;;13.00;1.40;;;2.60;81.50;;;;;;4144783;28;20100;-72
2022/01/05 08:07:20;;;;;;;13.82;1.73;;;2.60;81.40;;;;;;4165872;23;21094;-72
2022/01/05 08:09:21;;;;;;;19.80;2.00;;;2.60;81.40;;;;;;4142445;28;20470;-71
2022/01/05 08:11:22;;;;;;;16.10;1.88;;;2.60;81.50;;;;;;4141745;28;20506;-72
2022/01/05 08:13:24;;;;;;;17.25;2.13;;;2.60;81.50;;;;;;4141405;28;20058;-72
2022/01/05 08:15:25;;;;;;;14.52;1.60;;;2.60;81.50;;;;;;4112029;28;20513;-72
2022/01/05 08:17:25;;;;;;;22.45;1.77;;;2.60;81.60;;;;;;4142161;28;20072;-71
2022/01/05 08:19:26;;;;;;;19.42;1.85;;;2.60;81.60;;;;;;4140901;28;20024;-72
2022/01/05 08:21:27;;;;;;;17.05;1.98;;;2.60;81.60;;;;;;4141903;28;20105;-72
2022/01/05 08:23:28;;;;;;;16.40;2.15;;;2.60;81.70;;;;;;4142111;28;20029;-72
2022/01/05 08:25:29;;;;;;;18.77;2.30;;;2.60;81.80;;;;;;4109201;28;20107;-72
2022/01/05 08:27:30;;;;;;;23.58;1.55;;;2.60;81.90;;;;;;4142225;28;20517;-72
2022/01/05 08:29:30;;;;;;;13.45;1.88;;;2.60;81.90;;;;;;4141855;28;20105;-72
2022/01/05 08:31:31;;;;;;;8.93;1.92;;;2.60;82.00;;;;;;4144055;28;20386;-72
2022/01/05 08:33:32;;;;;;;19.95;1.60;;;2.60;82.10;;;;;;4146206;28;20037;-72
2022/01/05 08:35:33;;;;;;;13.10;1.48;;;2.60;82.20;;;;;;4125989;28;20470;-72
2022/01/05 08:37:33;;;;;;;13.25;1.73;;;2.60;82.10;;;;;;4124856;28;20114;-72
2022/01/05 08:39:34;;;;;;;9.35;1.20;;;2.60;82.20;;;;;;4142749;28;20389;-72
2022/01/05 08:41:34;;;;;;;8.90;1.40;;;2.60;83.00;;;;;;4140774;28;20091;-72
2022/01/05 08:43:35;;;;;;;14.38;1.58;;;2.60;82.30;;;;;;4139851;28;20103;-72
2022/01/05 08:45:36;;;;;;;12.70;1.52;;;2.70;82.40;;;;;;4124772;28;20049;-71
2022/01/05 08:47:36;;;;;;;13.07;1.48;;;2.60;83.20;;;;;;4123054;28;20046;-71
2022/01/05 08:49:37;;;;;;;9.23;1.00;;;2.70;82.80;;;;;;4125062;28;20487;-72
2022/01/05 08:51:38;;;;;;;9.88;1.40;;;2.70;82.90;;;;;;4140913;28;20914;-72
2022/01/05 08:53:38;;;;;;;14.90;1.48;;;2.70;83.10;;;;;;4141038;28;20026;-72
2022/01/05 08:55:42;;;;;;;11.55;1.40;;;2.80;83.50;;;;;;4141187;28;20069;-71
2022/01/05 08:57:43;;;;;;;14.38;1.75;;;2.80;83.80;;;;;;4109621;28;20534;-72
2022/01/05 08:59:44;;;;;;;9.38;1.10;;;2.90;84.00;;;;;;4143359;28;20026;-72
2022/01/05 09:01:45;;;;;;;17.35;1.10;;;3.00;84.40;;;;;;4140381;28;20162;-72
2022/01/05 09:03:45;;;;;;;11.18;1.33;;;3.10;84.40;;;;;;4146294;28;20037;-72
2022/01/05 09:05:46;;;;;;;8.35;0.90;;;3.10;84.40;;;;;;4145062;28;20065;-72
2022/01/05 09:07:47;;;;;;;18.05;1.17;;;3.10;84.20;;;;;;4129504;28;20576;-72
2022/01/05 09:09:47;;;;;;;9.38;1.23;;;3.10;84.00;;;;;;4146162;28;20029;-72
2022/01/05 09:11:48;;;;;;;6.35;0.70;;;3.10;83.80;;;;;;4143825;28;20033;-73
2022/01/05 09:13:49;;;;;;;4.00;0.60;;;3.20;83.60;;;;;;4144062;28;20034;-71
2022/01/05 09:15:50;;;;;;;8.50;0.80;;;3.20;83.40;;;;;;4144341;28;20129;-72
2022/01/05 09:17:51;;;;;;;11.30;1.63;;;3.20;83.20;;;;;;4143494;28;20406;-71
2022/01/05 09:19:52;;;;;;;13.80;2.42;;;3.30;83.00;;;;;;4125858;28;20030;-72
2022/01/05 09:21:53;;;;;;;9.30;1.90;;;3.30;82.70;;;;;;4143268;28;20038;-71
2022/01/05 09:23:53;;;;;;;11.65;1.92;;;3.30;82.40;;;;;;4142764;28;20037;-72
2022/01/05 09:25:54;;;;;;;3.45;0.80;;;3.30;82.10;;;;;;4143873;28;20541;-72
2022/01/05 09:27:54;;;;;;;6.43;0.75;;;3.30;81.90;;;;;;4141493;28;20141;-72
2022/01/05 09:29:55;;;;;;;4.80;0.70;;;3.30;81.70;;;;;;4141234;28;20405;-72
2022/01/05 09:31:56;;;;;;;4.63;0.50;;;3.30;81.50;;;;;;4142289;28;20038;-72
2022/01/05 09:33:56;;;;;;;6.63;0.65;;;3.20;81.30;;;;;;4124990;28;20074;-72
2022/01/05 09:36:05;;;;;;;4.55;0.40;;;3.20;81.30;;;;;;4141803;28;22209;-72
2022/01/05 09:38:10;;;;;;;6.70;0.95;;;3.20;81.30;;;;;;4138313;28;20056;-72
2022/01/05 09:42:31;;;;;;;2.80;0.47;;;3.20;81.30;;;;;;4142049;28;20109;-72
2022/01/05 09:44:38;;;;;;;11.10;0.80;;;3.20;81.30;;;;;;4126994;28;20026;-72
2022/01/05 09:46:56;;;;;;;5.10;0.65;;;3.20;81.30;;;;;;4145853;28;20511;-72
2022/01/05 09:49:02;;;;;;;6.97;0.70;;;3.30;81.40;;;;;;4125530;28;20030;-72
2022/01/05 09:51:06;;;;;;;5.35;1.05;;;3.30;81.40;;;;;;4125891;28;20090;-72
2022/01/05 09:53:06;;;;;;;;;;;3.30;81.40;;;;;;4143351;28;20034;-72
2022/01/05 09:55:08;;;;;;;8.10;1.35;;;3.30;81.50;;;;;;4141088;28;19916;-73
2022/01/05 09:57:12;;;;;;;8.40;0.85;;;3.30;81.40;;;;;;4124299;28;20033;-72
2022/01/05 09:59:12;;;;;;;9.77;0.90;;;3.40;82.30;;;;;;4141658;28;20022;-72
2022/01/05 10:01:13;;;;;;;7.60;0.73;;;3.40;81.70;;;;;;4139774;28;20052;-72
2022/01/05 10:03:14;;;;;;;8.75;0.90;;;3.50;81.80;;;;;;4124197;28;20030;-71
2022/01/05 10:05:16;;;;;;;13.80;1.25;;;3.50;81.90;;;;;;4125182;28;20085;-72
2022/01/05 10:07:16;;;;;;;9.65;1.08;;;3.50;81.90;;;;;;4123425;28;20034;-72
2022/01/05 10:09:17;;;;;;;7.93;1.05;;;3.60;81.90;;;;;;4125780;28;20073;-70
2022/01/05 10:11:20;;;;;;;7.55;1.35;;;3.70;81.90;;;;;;4129902;28;20087;-71
2022/01/05 10:13:21;;;;;;;8.90;0.93;;;3.60;81.50;;;;;;4142278;28;20053;-72
2022/01/05 10:15:22;;;;;;;9.63;1.10;;;3.70;81.20;;;;;;4130094;28;20073;-72
2022/01/05 10:17:31;;;;;;;7.03;0.90;;;3.70;81.00;;;;;;4125642;28;20030;-71
2022/01/05 10:19:32;;;;;;;7.07;1.10;;;3.80;80.90;;;;;;4128158;28;20037;-71
2022/01/05 10:21:34;;;;;;;7.07;1.10;;;3.80;80.80;;;;;;4143015;28;20075;-71
2022/01/05 10:23:46;;;;;;;12.40;0.95;;;3.80;80.80;;;;;;4145396;28;20044;-70
2022/01/05 10:25:46;;;;;;;6.88;0.70;;;3.80;80.50;;;;;;4144341;28;20036;-71
2022/01/05 10:27:57;;;;;;;11.85;1.02;;;3.90;80.60;;;;;;4126393;28;20062;-70
2022/01/05 10:30:07;;;;;;;4.55;0.60;;;3.90;80.50;;;;;;4124471;28;20108;-70
2022/01/05 10:32:08;;;;;;;13.90;0.70;;;3.90;80.40;;;;;;4144844;28;20026;-71
2022/01/05 10:34:18;;;;;;;7.47;1.00;;;3.90;80.40;;;;;;4130296;28;20397;-71
2022/01/05 10:36:19;;;;;;;6.20;0.85;;;3.90;80.30;;;;;;4140268;28;20525;-70